sensor_id;sensor_type;location;lat;lon;timestamp;P1;durP1;ratioP1;P2;durP2;ratioP2
55320;SDS011;41184;44.272;19.890;2022-11-15T00:00:19;66.82;;;49.17;;
55320;SDS011;41184;44.272;19.890;2022-11-15T00:02:45;68.25;;;48.83;;
55320;SDS011;41184;44.272;19.890;2022-11-15T00:05:11;63.05;;;43.40;;
55320;SDS011;41184;44.272;19.890;2022-11-15T00:07:37;61.22;;;43.42;;
55320;SDS011;41184;44.272;19.890;2022-11-15T00:10:04;59.30;;;43.85;;
55320;SDS011;41184;44.272;19.890;2022-11-15T00:12:30;57.08;;;43.63;;
55320;SDS011;41184;44.272;19.890;2022-11-15T00:14:56;72.18;;;50.63;;
55320;SDS011;41184;44.272;19.890;2022-11-15T00:17:22;65.80;;;47.67;;
55320;SDS011;41184;44.272;19.890;2022-11-15T00:19:48;66.13;;;45.17;;
55320;SDS011;41184;44.272;19.890;2022-11-15T00:22:14;56.47;;;41.28;;
55320;SDS011;41184;44.272;19.890;2022-11-15T00:24:40;57.47;;;40.28;;
55320;SDS011;41184;44.272;19.890;2022-11-15T00:27:06;61.00;;;43.13;;
55320;SDS011;41184;44.272;19.890;2022-11-15T00:29:32;60.03;;;44.13;;
55320;SDS011;41184;44.272;19.890;2022-11-15T00:31:58;59.53;;;43.08;;
55320;SDS011;41184;44.272;19.890;2022-11-15T00:34:24;66.20;;;43.95;;
55320;SDS011;41184;44.272;19.890;2022-11-15T00:36:50;67.47;;;45.85;;
55320;SDS011;41184;44.272;19.890;2022-11-15T00:39:16;65.15;;;45.83;;
55320;SDS011;41184;44.272;19.890;2022-11-15T00:41:42;65.40;;;46.60;;
55320;SDS011;41184;44.272;19.890;2022-11-15T00:44:08;68.20;;;44.90;;
55320;SDS011;41184;44.272;19.890;2022-11-15T00:46:34;65.10;;;46.17;;
55320;SDS011;41184;44.272;19.890;2022-11-15T00:49:00;80.50;;;48.97;;
55320;SDS011;41184;44.272;19.890;2022-11-15T00:51:26;65.95;;;46.60;;
55320;SDS011;41184;44.272;19.890;2022-11-15T00:53:53;64.25;;;44.33;;
55320;SDS011;41184;44.272;19.890;2022-11-15T00:56:19;59.92;;;42.08;;
55320;SDS011;41184;44.272;19.890;2022-11-15T00:58:45;63.05;;;44.28;;
55320;SDS011;41184;44.272;19.890;2022-11-15T01:01:12;61.17;;;44.60;;
55320;SDS011;41184;44.272;19.890;2022-11-15T01:03:39;62.97;;;42.80;;
55320;SDS011;41184;44.272;19.890;2022-11-15T01:06:05;65.10;;;41.17;;
55320;SDS011;41184;44.272;19.890;2022-11-15T01:08:32;59.83;;;42.38;;
55320;SDS011;41184;44.272;19.890;2022-11-15T01:11:02;57.13;;;40.53;;
55320;SDS011;41184;44.272;19.890;2022-11-15T01:13:31;58.58;;;42.50;;
55320;SDS011;41184;44.272;19.890;2022-11-15T01:15:58;57.40;;;42.08;;
55320;SDS011;41184;44.272;19.890;2022-11-15T01:18:24;59.90;;;42.00;;
55320;SDS011;41184;44.272;19.890;2022-11-15T01:20:50;56.55;;;42.47;;
55320;SDS011;41184;44.272;19.890;2022-11-15T01:23:16;55.50;;;41.47;;
55320;SDS011;41184;44.272;19.890;2022-11-15T01:25:42;59.58;;;41.67;;
55320;SDS011;41184;44.272;19.890;2022-11-15T01:28:08;61.22;;;44.63;;
55320;SDS011;41184;44.272;19.890;2022-11-15T01:30:35;55.28;;;40.92;;
55320;SDS011;41184;44.272;19.890;2022-11-15T01:33:01;54.35;;;42.42;;
55320;SDS011;41184;44.272;19.890;2022-11-15T01:35:27;59.70;;;44.05;;
55320;SDS011;41184;44.272;19.890;2022-11-15T01:37:53;62.80;;;44.90;;
55320;SDS011;41184;44.272;19.890;2022-11-15T01:40:19;61.97;;;45.22;;
55320;SDS011;41184;44.272;19.890;2022-11-15T01:42:45;60.80;;;44.08;;
55320;SDS011;41184;44.272;19.890;2022-11-15T01:45:13;65.38;;;46.53;;
55320;SDS011;41184;44.272;19.890;2022-11-15T01:47:40;63.85;;;46.88;;
55320;SDS011;41184;44.272;19.890;2022-11-15T01:50:10;68.13;;;48.00;;
55320;SDS011;41184;44.272;19.890;2022-11-15T01:52:36;69.40;;;50.80;;
55320;SDS011;41184;44.272;19.890;2022-11-15T01:55:11;72.25;;;53.10;;
55320;SDS011;41184;44.272;19.890;2022-11-15T01:57:40;89.25;;;61.53;;
55320;SDS011;41184;44.272;19.890;2022-11-15T02:00:07;90.18;;;64.00;;
55320;SDS011;41184;44.272;19.890;2022-11-15T02:02:34;90.57;;;64.95;;
55320;SDS011;41184;44.272;19.890;2022-11-15T02:05:01;83.85;;;61.70;;
55320;SDS011;41184;44.272;19.890;2022-11-15T02:07:27;81.85;;;58.25;;
55320;SDS011;41184;44.272;19.890;2022-11-15T02:09:54;83.10;;;58.70;;
55320;SDS011;41184;44.272;19.890;2022-11-15T02:12:20;88.28;;;66.38;;
55320;SDS011;41184;44.272;19.890;2022-11-15T02:14:48;84.55;;;62.60;;
55320;SDS011;41184;44.272;19.890;2022-11-15T02:22:57;70.90;;;52.83;;
55320;SDS011;41184;44.272;19.890;2022-11-15T02:33:04;72.10;;;53.28;;
55320;SDS011;41184;44.272;19.890;2022-11-15T02:35:44;76.63;;;55.65;;
55320;SDS011;41184;44.272;19.890;2022-11-15T02:38:22;71.80;;;54.60;;
55320;SDS011;41184;44.272;19.890;2022-11-15T02:40:59;73.27;;;53.47;;
55320;SDS011;41184;44.272;19.890;2022-11-15T02:43:38;75.03;;;55.60;;
55320;SDS011;41184;44.272;19.890;2022-11-15T02:46:26;77.30;;;55.35;;
55320;SDS011;41184;44.272;19.890;2022-11-15T02:49:13;75.45;;;54.67;;
55320;SDS011;41184;44.272;19.890;2022-11-15T02:51:40;73.30;;;56.72;;
55320;SDS011;41184;44.272;19.890;2022-11-15T02:54:06;76.40;;;56.63;;
55320;SDS011;41184;44.272;19.890;2022-11-15T02:56:33;75.53;;;56.58;;
55320;SDS011;41184;44.272;19.890;2022-11-15T02:59:07;79.68;;;57.97;;
55320;SDS011;41184;44.272;19.890;2022-11-15T03:11:49;81.55;;;59.70;;
55320;SDS011;41184;44.272;19.890;2022-11-15T03:16:48;80.20;;;60.05;;
55320;SDS011;41184;44.272;19.890;2022-11-15T03:19:40;86.53;;;63.08;;
55320;SDS011;41184;44.272;19.890;2022-11-15T03:22:03;86.55;;;62.92;;
55320;SDS011;41184;44.272;19.890;2022-11-15T03:24:30;82.25;;;59.17;;
55320;SDS011;41184;44.272;19.890;2022-11-15T03:26:59;86.05;;;61.83;;
55320;SDS011;41184;44.272;19.890;2022-11-15T03:29:27;80.07;;;59.00;;
55320;SDS011;41184;44.272;19.890;2022-11-15T03:31:57;79.07;;;59.20;;
55320;SDS011;41184;44.272;19.890;2022-11-15T03:34:29;83.15;;;59.35;;
55320;SDS011;41184;44.272;19.890;2022-11-15T03:36:57;81.50;;;60.40;;
55320;SDS011;41184;44.272;19.890;2022-11-15T03:39:23;82.45;;;60.08;;
55320;SDS011;41184;44.272;19.890;2022-11-15T03:44:55;92.38;;;63.15;;
55320;SDS011;41184;44.272;19.890;2022-11-15T03:50:04;90.15;;;63.80;;
55320;SDS011;41184;44.272;19.890;2022-11-15T03:52:33;92.63;;;68.30;;
55320;SDS011;41184;44.272;19.890;2022-11-15T03:55:00;92.35;;;66.15;;
55320;SDS011;41184;44.272;19.890;2022-11-15T03:57:26;90.82;;;65.43;;
55320;SDS011;41184;44.272;19.890;2022-11-15T03:59:52;90.93;;;67.80;;
55320;SDS011;41184;44.272;19.890;2022-11-15T04:02:18;118.68;;;86.03;;
55320;SDS011;41184;44.272;19.890;2022-11-15T04:04:45;116.85;;;86.03;;
55320;SDS011;41184;44.272;19.890;2022-11-15T04:07:11;122.70;;;92.97;;
55320;SDS011;41184;44.272;19.890;2022-11-15T04:09:37;121.65;;;91.30;;
55320;SDS011;41184;44.272;19.890;2022-11-15T04:12:23;114.95;;;89.13;;
55320;SDS011;41184;44.272;19.890;2022-11-15T04:14:59;120.60;;;91.40;;
55320;SDS011;41184;44.272;19.890;2022-11-15T04:17:32;120.18;;;92.38;;
55320;SDS011;41184;44.272;19.890;2022-11-15T04:19:58;119.03;;;91.00;;
55320;SDS011;41184;44.272;19.890;2022-11-15T04:22:43;117.38;;;86.60;;
55320;SDS011;41184;44.272;19.890;2022-11-15T04:25:28;113.97;;;87.25;;
55320;SDS011;41184;44.272;19.890;2022-11-15T04:27:54;115.35;;;86.75;;
55320;SDS011;41184;44.272;19.890;2022-11-15T04:30:20;126.85;;;93.03;;
55320;SDS011;41184;44.272;19.890;2022-11-15T04:32:46;128.63;;;94.60;;
55320;SDS011;41184;44.272;19.890;2022-11-15T04:35:12;122.68;;;95.10;;
55320;SDS011;41184;44.272;19.890;2022-11-15T04:37:38;127.05;;;95.45;;
55320;SDS011;41184;44.272;19.890;2022-11-15T04:40:04;132.15;;;96.80;;
55320;SDS011;41184;44.272;19.890;2022-11-15T04:42:30;128.48;;;95.10;;
55320;SDS011;41184;44.272;19.890;2022-11-15T04:44:56;131.93;;;100.38;;
55320;SDS011;41184;44.272;19.890;2022-11-15T04:47:22;122.82;;;95.53;;
55320;SDS011;41184;44.272;19.890;2022-11-15T04:49:48;117.90;;;90.22;;
55320;SDS011;41184;44.272;19.890;2022-11-15T04:52:15;119.50;;;89.80;;
55320;SDS011;41184;44.272;19.890;2022-11-15T04:54:41;111.25;;;84.43;;
55320;SDS011;41184;44.272;19.890;2022-11-15T04:57:07;114.70;;;84.18;;
55320;SDS011;41184;44.272;19.890;2022-11-15T04:59:34;116.72;;;87.72;;
55320;SDS011;41184;44.272;19.890;2022-11-15T05:02:00;108.57;;;84.38;;
55320;SDS011;41184;44.272;19.890;2022-11-15T05:04:26;115.88;;;87.53;;
55320;SDS011;41184;44.272;19.890;2022-11-15T05:06:52;112.68;;;86.75;;
55320;SDS011;41184;44.272;19.890;2022-11-15T05:09:18;109.28;;;83.43;;
55320;SDS011;41184;44.272;19.890;2022-11-15T05:11:44;107.85;;;80.88;;
55320;SDS011;41184;44.272;19.890;2022-11-15T05:14:11;105.57;;;80.97;;
55320;SDS011;41184;44.272;19.890;2022-11-15T05:16:38;107.00;;;83.38;;
55320;SDS011;41184;44.272;19.890;2022-11-15T05:19:04;102.72;;;77.38;;
55320;SDS011;41184;44.272;19.890;2022-11-15T05:21:30;105.78;;;82.40;;
55320;SDS011;41184;44.272;19.890;2022-11-15T05:23:56;104.35;;;81.10;;
55320;SDS011;41184;44.272;19.890;2022-11-15T05:26:22;109.78;;;80.22;;
55320;SDS011;41184;44.272;19.890;2022-11-15T05:28:55;110.15;;;79.03;;
55320;SDS011;41184;44.272;19.890;2022-11-15T05:31:22;105.32;;;78.50;;
55320;SDS011;41184;44.272;19.890;2022-11-15T05:33:50;103.35;;;79.50;;
55320;SDS011;41184;44.272;19.890;2022-11-15T05:38:47;114.20;;;86.90;;
55320;SDS011;41184;44.272;19.890;2022-11-15T05:41:14;107.78;;;79.28;;
55320;SDS011;41184;44.272;19.890;2022-11-15T05:43:42;115.82;;;84.53;;
55320;SDS011;41184;44.272;19.890;2022-11-15T05:46:09;124.25;;;89.90;;
55320;SDS011;41184;44.272;19.890;2022-11-15T05:48:35;182.45;;;140.43;;
55320;SDS011;41184;44.272;19.890;2022-11-15T05:51:02;335.38;;;238.65;;
55320;SDS011;41184;44.272;19.890;2022-11-15T05:53:29;228.05;;;168.43;;
55320;SDS011;41184;44.272;19.890;2022-11-15T05:55:56;195.70;;;152.07;;
55320;SDS011;41184;44.272;19.890;2022-11-15T05:58:22;170.98;;;135.80;;
55320;SDS011;41184;44.272;19.890;2022-11-15T06:00:48;129.25;;;101.50;;
55320;SDS011;41184;44.272;19.890;2022-11-15T06:03:14;131.57;;;99.80;;
55320;SDS011;41184;44.272;19.890;2022-11-15T06:05:40;122.80;;;93.00;;
55320;SDS011;41184;44.272;19.890;2022-11-15T06:08:06;118.03;;;88.47;;
55320;SDS011;41184;44.272;19.890;2022-11-15T06:10:32;124.38;;;93.30;;
55320;SDS011;41184;44.272;19.890;2022-11-15T06:13:03;122.22;;;94.43;;
55320;SDS011;41184;44.272;19.890;2022-11-15T06:15:29;122.03;;;91.83;;
55320;SDS011;41184;44.272;19.890;2022-11-15T06:17:56;117.60;;;93.55;;
55320;SDS011;41184;44.272;19.890;2022-11-15T06:20:25;115.10;;;85.88;;
55320;SDS011;41184;44.272;19.890;2022-11-15T06:22:56;119.88;;;90.85;;
55320;SDS011;41184;44.272;19.890;2022-11-15T06:25:22;91.27;;;68.77;;
55320;SDS011;41184;44.272;19.890;2022-11-15T06:27:52;120.15;;;91.55;;
55320;SDS011;41184;44.272;19.890;2022-11-15T06:30:19;125.70;;;93.40;;
55320;SDS011;41184;44.272;19.890;2022-11-15T06:32:45;125.20;;;97.45;;
55320;SDS011;41184;44.272;19.890;2022-11-15T06:35:11;136.68;;;103.50;;
55320;SDS011;41184;44.272;19.890;2022-11-15T06:37:37;125.88;;;100.43;;
55320;SDS011;41184;44.272;19.890;2022-11-15T06:40:03;147.85;;;111.38;;
55320;SDS011;41184;44.272;19.890;2022-11-15T06:42:30;142.73;;;106.90;;
55320;SDS011;41184;44.272;19.890;2022-11-15T06:44:56;133.95;;;99.43;;
55320;SDS011;41184;44.272;19.890;2022-11-15T06:47:22;139.13;;;104.70;;
55320;SDS011;41184;44.272;19.890;2022-11-15T06:49:48;134.77;;;103.03;;
55320;SDS011;41184;44.272;19.890;2022-11-15T06:52:14;129.70;;;100.13;;
55320;SDS011;41184;44.272;19.890;2022-11-15T06:54:40;138.05;;;105.60;;
55320;SDS011;41184;44.272;19.890;2022-11-15T06:57:06;131.82;;;99.55;;
55320;SDS011;41184;44.272;19.890;2022-11-15T06:59:32;130.68;;;101.28;;
55320;SDS011;41184;44.272;19.890;2022-11-15T07:01:58;134.52;;;99.88;;
55320;SDS011;41184;44.272;19.890;2022-11-15T07:04:24;130.80;;;98.20;;
55320;SDS011;41184;44.272;19.890;2022-11-15T07:06:50;133.52;;;100.55;;
55320;SDS011;41184;44.272;19.890;2022-11-15T07:09:16;134.98;;;103.28;;
55320;SDS011;41184;44.272;19.890;2022-11-15T07:11:42;126.85;;;98.03;;
55320;SDS011;41184;44.272;19.890;2022-11-15T07:14:08;141.43;;;107.05;;
55320;SDS011;41184;44.272;19.890;2022-11-15T07:16:35;140.18;;;108.03;;
55320;SDS011;41184;44.272;19.890;2022-11-15T07:19:02;128.95;;;103.00;;
55320;SDS011;41184;44.272;19.890;2022-11-15T07:21:28;134.00;;;105.82;;
55320;SDS011;41184;44.272;19.890;2022-11-15T07:23:54;139.65;;;107.50;;
55320;SDS011;41184;44.272;19.890;2022-11-15T07:26:20;134.70;;;105.57;;
55320;SDS011;41184;44.272;19.890;2022-11-15T07:28:46;132.25;;;105.80;;
55320;SDS011;41184;44.272;19.890;2022-11-15T07:31:12;143.38;;;113.72;;
55320;SDS011;41184;44.272;19.890;2022-11-15T07:33:38;152.77;;;117.95;;
55320;SDS011;41184;44.272;19.890;2022-11-15T07:36:05;144.20;;;109.38;;
55320;SDS011;41184;44.272;19.890;2022-11-15T07:38:32;138.65;;;105.70;;
55320;SDS011;41184;44.272;19.890;2022-11-15T07:40:58;130.82;;;106.03;;
55320;SDS011;41184;44.272;19.890;2022-11-15T07:43:25;132.73;;;102.22;;
55320;SDS011;41184;44.272;19.890;2022-11-15T07:45:53;129.18;;;100.32;;
55320;SDS011;41184;44.272;19.890;2022-11-15T07:48:19;121.00;;;96.00;;
55320;SDS011;41184;44.272;19.890;2022-11-15T07:50:45;117.53;;;92.97;;
55320;SDS011;41184;44.272;19.890;2022-11-15T07:53:11;119.78;;;94.40;;
55320;SDS011;41184;44.272;19.890;2022-11-15T07:55:39;119.07;;;91.70;;
55320;SDS011;41184;44.272;19.890;2022-11-15T07:58:06;152.45;;;121.18;;
55320;SDS011;41184;44.272;19.890;2022-11-15T08:00:33;156.85;;;119.60;;
55320;SDS011;41184;44.272;19.890;2022-11-15T08:03:06;150.95;;;117.38;;
55320;SDS011;41184;44.272;19.890;2022-11-15T08:05:32;137.85;;;108.32;;
55320;SDS011;41184;44.272;19.890;2022-11-15T08:07:58;130.38;;;102.72;;
55320;SDS011;41184;44.272;19.890;2022-11-15T08:10:25;118.25;;;90.43;;
55320;SDS011;41184;44.272;19.890;2022-11-15T08:13:01;107.63;;;84.85;;
55320;SDS011;41184;44.272;19.890;2022-11-15T08:15:27;119.43;;;91.80;;
55320;SDS011;41184;44.272;19.890;2022-11-15T08:17:57;110.65;;;87.00;;
55320;SDS011;41184;44.272;19.890;2022-11-15T08:20:23;108.75;;;89.20;;
55320;SDS011;41184;44.272;19.890;2022-11-15T08:22:50;109.43;;;85.97;;
55320;SDS011;41184;44.272;19.890;2022-11-15T08:25:16;111.63;;;86.80;;
55320;SDS011;41184;44.272;19.890;2022-11-15T08:27:43;114.32;;;85.43;;
55320;SDS011;41184;44.272;19.890;2022-11-15T08:30:09;103.70;;;80.85;;
55320;SDS011;41184;44.272;19.890;2022-11-15T08:32:36;109.15;;;86.25;;
55320;SDS011;41184;44.272;19.890;2022-11-15T08:35:02;107.93;;;82.68;;
55320;SDS011;41184;44.272;19.890;2022-11-15T08:37:28;108.50;;;82.95;;
55320;SDS011;41184;44.272;19.890;2022-11-15T08:39:54;104.70;;;79.45;;
55320;SDS011;41184;44.272;19.890;2022-11-15T08:42:20;104.90;;;82.45;;
55320;SDS011;41184;44.272;19.890;2022-11-15T08:44:46;105.32;;;81.28;;
55320;SDS011;41184;44.272;19.890;2022-11-15T08:47:12;133.65;;;100.13;;
55320;SDS011;41184;44.272;19.890;2022-11-15T08:49:38;120.40;;;91.40;;
55320;SDS011;41184;44.272;19.890;2022-11-15T08:52:05;109.55;;;82.30;;
55320;SDS011;41184;44.272;19.890;2022-11-15T08:54:31;114.78;;;85.47;;
55320;SDS011;41184;44.272;19.890;2022-11-15T08:56:57;119.45;;;91.30;;
55320;SDS011;41184;44.272;19.890;2022-11-15T08:59:23;116.53;;;93.28;;
55320;SDS011;41184;44.272;19.890;2022-11-15T09:01:49;113.82;;;89.93;;
55320;SDS011;41184;44.272;19.890;2022-11-15T09:04:15;122.60;;;93.07;;
55320;SDS011;41184;44.272;19.890;2022-11-15T09:06:41;126.03;;;96.88;;
55320;SDS011;41184;44.272;19.890;2022-11-15T09:09:07;121.65;;;95.35;;
55320;SDS011;41184;44.272;19.890;2022-11-15T09:11:33;122.15;;;94.43;;
55320;SDS011;41184;44.272;19.890;2022-11-15T09:13:59;122.72;;;94.05;;
55320;SDS011;41184;44.272;19.890;2022-11-15T09:16:25;119.18;;;90.13;;
55320;SDS011;41184;44.272;19.890;2022-11-15T09:18:52;122.32;;;95.30;;
55320;SDS011;41184;44.272;19.890;2022-11-15T09:21:19;126.82;;;100.40;;
55320;SDS011;41184;44.272;19.890;2022-11-15T09:23:45;128.75;;;97.95;;
55320;SDS011;41184;44.272;19.890;2022-11-15T09:26:11;134.30;;;104.38;;
55320;SDS011;41184;44.272;19.890;2022-11-15T09:28:37;136.98;;;107.50;;
55320;SDS011;41184;44.272;19.890;2022-11-15T09:31:06;133.98;;;108.13;;
55320;SDS011;41184;44.272;19.890;2022-11-15T09:33:32;137.82;;;109.32;;
55320;SDS011;41184;44.272;19.890;2022-11-15T09:35:59;142.32;;;110.18;;
55320;SDS011;41184;44.272;19.890;2022-11-15T09:38:26;171.85;;;129.57;;
55320;SDS011;41184;44.272;19.890;2022-11-15T09:40:53;155.52;;;125.03;;
55320;SDS011;41184;44.272;19.890;2022-11-15T09:43:47;162.05;;;130.82;;
55320;SDS011;41184;44.272;19.890;2022-11-15T09:48:52;179.30;;;147.48;;
55320;SDS011;41184;44.272;19.890;2022-11-15T09:51:26;181.60;;;143.65;;
55320;SDS011;41184;44.272;19.890;2022-11-15T09:53:57;186.65;;;151.35;;
55320;SDS011;41184;44.272;19.890;2022-11-15T09:56:26;185.52;;;146.23;;
55320;SDS011;41184;44.272;19.890;2022-11-15T10:01:21;160.07;;;128.75;;
55320;SDS011;41184;44.272;19.890;2022-11-15T10:03:48;147.52;;;122.30;;
55320;SDS011;41184;44.272;19.890;2022-11-15T10:06:21;143.23;;;120.13;;
55320;SDS011;41184;44.272;19.890;2022-11-15T10:08:54;142.50;;;118.35;;
55320;SDS011;41184;44.272;19.890;2022-11-15T10:11:23;146.73;;;118.80;;
55320;SDS011;41184;44.272;19.890;2022-11-15T10:13:51;150.20;;;117.80;;
55320;SDS011;41184;44.272;19.890;2022-11-15T10:24:13;110.05;;;87.82;;
55320;SDS011;41184;44.272;19.890;2022-11-15T10:26:47;112.00;;;85.32;;
55320;SDS011;41184;44.272;19.890;2022-11-15T10:29:23;101.07;;;80.90;;
55320;SDS011;41184;44.272;19.890;2022-11-15T10:31:49;89.57;;;73.47;;
55320;SDS011;41184;44.272;19.890;2022-11-15T10:34:16;97.00;;;73.90;;
55320;SDS011;41184;44.272;19.890;2022-11-15T10:36:46;82.88;;;66.20;;
55320;SDS011;41184;44.272;19.890;2022-11-15T10:39:13;83.50;;;69.25;;
55320;SDS011;41184;44.272;19.890;2022-11-15T10:41:40;91.88;;;71.93;;
55320;SDS011;41184;44.272;19.890;2022-11-15T10:46:36;95.60;;;68.80;;
55320;SDS011;41184;44.272;19.890;2022-11-15T10:49:12;77.90;;;61.70;;
55320;SDS011;41184;44.272;19.890;2022-11-15T10:51:44;91.82;;;68.68;;
55320;SDS011;41184;44.272;19.890;2022-11-15T10:54:10;77.50;;;60.08;;
55320;SDS011;41184;44.272;19.890;2022-11-15T10:56:38;76.75;;;59.17;;
55320;SDS011;41184;44.272;19.890;2022-11-15T10:59:04;71.35;;;57.25;;
55320;SDS011;41184;44.272;19.890;2022-11-15T11:01:31;102.78;;;64.90;;
55320;SDS011;41184;44.272;19.890;2022-11-15T11:04:10;83.88;;;55.80;;
55320;SDS011;41184;44.272;19.890;2022-11-15T11:06:53;76.40;;;58.05;;
55320;SDS011;41184;44.272;19.890;2022-11-15T11:11:49;88.22;;;56.58;;
55320;SDS011;41184;44.272;19.890;2022-11-15T11:14:22;86.28;;;56.60;;
55320;SDS011;41184;44.272;19.890;2022-11-15T11:24:49;74.13;;;55.28;;
55320;SDS011;41184;44.272;19.890;2022-11-15T11:27:26;101.10;;;66.10;;
55320;SDS011;41184;44.272;19.890;2022-11-15T11:30:02;210.95;;;118.45;;
55320;SDS011;41184;44.272;19.890;2022-11-15T11:32:33;107.63;;;79.15;;
55320;SDS011;41184;44.272;19.890;2022-11-15T11:35:05;68.95;;;49.22;;
55320;SDS011;41184;44.272;19.890;2022-11-15T11:37:40;80.68;;;52.70;;
55320;SDS011;41184;44.272;19.890;2022-11-15T11:47:38;59.65;;;45.13;;
55320;SDS011;41184;44.272;19.890;2022-11-15T11:50:13;61.90;;;46.10;;
55320;SDS011;41184;44.272;19.890;2022-11-15T11:55:16;57.65;;;46.63;;
55320;SDS011;41184;44.272;19.890;2022-11-15T12:00:27;59.17;;;45.08;;
55320;SDS011;41184;44.272;19.890;2022-11-15T12:05:28;85.80;;;58.30;;
55320;SDS011;41184;44.272;19.890;2022-11-15T12:10:22;52.95;;;41.88;;
55320;SDS011;41184;44.272;19.890;2022-11-15T12:12:52;70.32;;;43.25;;
55320;SDS011;41184;44.272;19.890;2022-11-15T12:15:23;78.95;;;56.15;;
55320;SDS011;41184;44.272;19.890;2022-11-15T12:17:50;105.40;;;70.30;;
55320;SDS011;41184;44.272;19.890;2022-11-15T12:22:43;52.00;;;44.33;;
55320;SDS011;41184;44.272;19.890;2022-11-15T12:25:27;68.00;;;46.95;;
55320;SDS011;41184;44.272;19.890;2022-11-15T12:27:56;89.25;;;65.50;;
55320;SDS011;41184;44.272;19.890;2022-11-15T12:30:23;95.18;;;62.65;;
55320;SDS011;41184;44.272;19.890;2022-11-15T12:32:57;77.63;;;45.25;;
55320;SDS011;41184;44.272;19.890;2022-11-15T12:35:41;59.88;;;46.15;;
55320;SDS011;41184;44.272;19.890;2022-11-15T12:38:13;82.40;;;55.90;;
55320;SDS011;41184;44.272;19.890;2022-11-15T12:41:15;88.35;;;58.72;;
55320;SDS011;41184;44.272;19.890;2022-11-15T12:43:43;136.55;;;88.53;;
55320;SDS011;41184;44.272;19.890;2022-11-15T12:48:47;139.00;;;91.13;;
55320;SDS011;41184;44.272;19.890;2022-11-15T12:51:13;194.15;;;120.63;;
55320;SDS011;41184;44.272;19.890;2022-11-15T12:53:39;48.42;;;41.25;;
55320;SDS011;41184;44.272;19.890;2022-11-15T12:56:09;62.00;;;45.83;;
55320;SDS011;41184;44.272;19.890;2022-11-15T12:58:55;55.92;;;43.40;;
55320;SDS011;41184;44.272;19.890;2022-11-15T13:06:43;43.88;;;35.67;;
55320;SDS011;41184;44.272;19.890;2022-11-15T13:11:54;51.83;;;39.58;;
55320;SDS011;41184;44.272;19.890;2022-11-15T13:20:02;69.40;;;46.72;;
55320;SDS011;41184;44.272;19.890;2022-11-15T13:22:39;59.88;;;42.83;;
55320;SDS011;41184;44.272;19.890;2022-11-15T13:27:48;59.35;;;40.30;;
55320;SDS011;41184;44.272;19.890;2022-11-15T13:30:19;77.47;;;49.30;;
55320;SDS011;41184;44.272;19.890;2022-11-15T13:32:45;80.80;;;50.38;;
55320;SDS011;41184;44.272;19.890;2022-11-15T13:35:21;69.88;;;45.50;;
55320;SDS011;41184;44.272;19.890;2022-11-15T13:37:48;63.60;;;41.40;;
55320;SDS011;41184;44.272;19.890;2022-11-15T13:42:50;73.60;;;50.30;;
55320;SDS011;41184;44.272;19.890;2022-11-15T13:45:17;63.38;;;45.33;;
55320;SDS011;41184;44.272;19.890;2022-11-15T13:47:43;62.42;;;48.83;;
55320;SDS011;41184;44.272;19.890;2022-11-15T13:50:11;73.65;;;53.28;;
55320;SDS011;41184;44.272;19.890;2022-11-15T13:52:37;87.85;;;56.13;;
55320;SDS011;41184;44.272;19.890;2022-11-15T14:00:05;65.00;;;44.33;;
55320;SDS011;41184;44.272;19.890;2022-11-15T14:02:32;89.82;;;65.65;;
55320;SDS011;41184;44.272;19.890;2022-11-15T14:05:00;79.63;;;59.08;;
55320;SDS011;41184;44.272;19.890;2022-11-15T14:07:28;72.25;;;56.28;;
55320;SDS011;41184;44.272;19.890;2022-11-15T14:09:54;87.30;;;60.33;;
55320;SDS011;41184;44.272;19.890;2022-11-15T14:14:50;87.05;;;68.50;;
55320;SDS011;41184;44.272;19.890;2022-11-15T14:17:21;94.13;;;70.43;;
55320;SDS011;41184;44.272;19.890;2022-11-15T14:19:48;86.57;;;65.13;;
55320;SDS011;41184;44.272;19.890;2022-11-15T14:22:23;79.18;;;61.92;;
55320;SDS011;41184;44.272;19.890;2022-11-15T14:27:38;83.53;;;61.85;;
55320;SDS011;41184;44.272;19.890;2022-11-15T14:30:04;106.90;;;73.18;;
55320;SDS011;41184;44.272;19.890;2022-11-15T14:32:41;98.53;;;65.55;;
55320;SDS011;41184;44.272;19.890;2022-11-15T14:35:09;102.70;;;66.25;;
55320;SDS011;41184;44.272;19.890;2022-11-15T14:37:37;94.63;;;64.68;;
55320;SDS011;41184;44.272;19.890;2022-11-15T14:40:04;88.10;;;59.20;;
55320;SDS011;41184;44.272;19.890;2022-11-15T14:42:30;80.35;;;55.90;;
55320;SDS011;41184;44.272;19.890;2022-11-15T14:44:57;103.88;;;63.92;;
55320;SDS011;41184;44.272;19.890;2022-11-15T14:47:23;100.45;;;65.20;;
55320;SDS011;41184;44.272;19.890;2022-11-15T14:49:49;100.18;;;70.85;;
55320;SDS011;41184;44.272;19.890;2022-11-15T14:52:25;105.68;;;74.65;;
55320;SDS011;41184;44.272;19.890;2022-11-15T14:54:52;102.30;;;69.45;;
55320;SDS011;41184;44.272;19.890;2022-11-15T14:57:18;86.25;;;62.42;;
55320;SDS011;41184;44.272;19.890;2022-11-15T14:59:45;103.28;;;73.93;;
55320;SDS011;41184;44.272;19.890;2022-11-15T15:02:21;132.18;;;96.60;;
55320;SDS011;41184;44.272;19.890;2022-11-15T15:04:47;120.93;;;82.50;;
55320;SDS011;41184;44.272;19.890;2022-11-15T15:07:13;111.55;;;77.43;;
55320;SDS011;41184;44.272;19.890;2022-11-15T15:09:40;98.57;;;70.43;;
55320;SDS011;41184;44.272;19.890;2022-11-15T15:12:20;101.00;;;68.40;;
55320;SDS011;41184;44.272;19.890;2022-11-15T15:14:47;117.22;;;87.47;;
55320;SDS011;41184;44.272;19.890;2022-11-15T15:17:14;121.63;;;87.97;;
55320;SDS011;41184;44.272;19.890;2022-11-15T15:19:40;120.28;;;83.93;;
55320;SDS011;41184;44.272;19.890;2022-11-15T15:22:09;127.65;;;84.38;;
55320;SDS011;41184;44.272;19.890;2022-11-15T15:24:38;132.57;;;96.55;;
55320;SDS011;41184;44.272;19.890;2022-11-15T15:27:04;134.30;;;98.78;;
55320;SDS011;41184;44.272;19.890;2022-11-15T15:29:30;141.70;;;104.55;;
55320;SDS011;41184;44.272;19.890;2022-11-15T15:31:56;205.43;;;131.88;;
55320;SDS011;41184;44.272;19.890;2022-11-15T15:34:22;333.95;;;207.43;;
55320;SDS011;41184;44.272;19.890;2022-11-15T15:36:48;126.15;;;92.30;;
55320;SDS011;41184;44.272;19.890;2022-11-15T15:39:14;156.70;;;105.45;;
55320;SDS011;41184;44.272;19.890;2022-11-15T15:41:41;216.77;;;136.32;;
55320;SDS011;41184;44.272;19.890;2022-11-15T15:44:07;161.48;;;111.03;;
55320;SDS011;41184;44.272;19.890;2022-11-15T15:46:33;131.55;;;88.55;;
55320;SDS011;41184;44.272;19.890;2022-11-15T15:49:00;113.38;;;83.13;;
55320;SDS011;41184;44.272;19.890;2022-11-15T15:51:26;148.25;;;117.32;;
55320;SDS011;41184;44.272;19.890;2022-11-15T15:53:52;129.05;;;89.35;;
55320;SDS011;41184;44.272;19.890;2022-11-15T15:56:22;123.57;;;87.35;;